createdAt,value
2022-10-23T00:01:34.648Z,1.42
2022-10-23T00:04:28.070Z,1.25
2022-10-23T00:07:17.637Z,1.17
2022-10-23T00:10:07.690Z,1.35
2022-10-23T00:12:56.950Z,2.50
2022-10-23T00:15:46.632Z,2.17
2022-10-23T00:18:36.761Z,1.40
2022-10-23T00:21:27.211Z,2.05
2022-10-23T00:24:16.824Z,2.28
2022-10-23T00:27:06.241Z,1.88
2022-10-23T00:29:55.836Z,1.92
2022-10-23T00:32:45.185Z,1.25
2022-10-23T00:35:34.586Z,1.65
2022-10-23T00:38:24.037Z,1.70
2022-10-23T00:41:19.302Z,1.65
2022-10-23T00:44:31.374Z,1.50
2022-10-23T00:47:20.985Z,3.15
2022-10-23T00:50:10.711Z,1.73
2022-10-23T00:53:03.927Z,1.50
2022-10-23T00:55:56.877Z,1.40
2022-10-23T00:58:46.124Z,1.25
2022-10-23T01:01:35.645Z,1.30
2022-10-23T01:04:26.445Z,1.70
2022-10-23T01:07:34.660Z,1.33
2022-10-23T01:10:46.016Z,1.33
2022-10-23T01:13:52.793Z,1.38
2022-10-23T01:16:48.011Z,1.20
2022-10-23T01:19:37.684Z,1.20
2022-10-23T01:23:08.549Z,1.35
2022-10-23T01:26:21.277Z,1.40
2022-10-23T01:29:34.724Z,1.40
2022-10-23T01:32:30.877Z,1.40
2022-10-23T01:35:31.430Z,1.20
2022-10-23T01:38:36.637Z,1.13
2022-10-23T01:41:46.007Z,1.15
2022-10-23T01:45:08.358Z,1.20
2022-10-23T01:48:05.005Z,1.30
2022-10-23T01:51:00.426Z,2.72
2022-10-23T01:53:52.715Z,2.28
2022-10-23T01:59:41.334Z,2.30
2022-10-23T02:02:33.980Z,1.30
2022-10-23T02:05:31.997Z,1.30
2022-10-23T02:08:23.726Z,1.35
2022-10-23T02:11:16.993Z,1.88
2022-10-23T02:14:29.614Z,1.30
2022-10-23T02:17:35.137Z,1.33
2022-10-23T02:20:33.590Z,3.03
2022-10-23T02:23:41.558Z,2.03
2022-10-23T02:26:45.041Z,1.20
2022-10-23T02:29:47.935Z,1.20
2022-10-23T02:32:40.620Z,1.88
2022-10-23T02:35:30.460Z,1.20
2022-10-23T02:38:35.365Z,2.03
2022-10-23T02:41:34.044Z,3.17
2022-10-23T02:44:41.484Z,1.58
2022-10-23T02:47:35.000Z,1.25
2022-10-23T02:50:30.583Z,1.33
2022-10-23T02:53:31.410Z,1.40
2022-10-23T02:56:36.610Z,1.90
2022-10-23T02:59:38.413Z,1.30
2022-10-23T03:02:42.416Z,2.05
2022-10-23T03:05:37.606Z,1.20
2022-10-23T03:08:27.190Z,1.20
2022-10-23T03:11:16.650Z,1.13
2022-10-23T03:14:06.389Z,1.15
2022-10-23T03:16:55.843Z,2.65
2022-10-23T03:19:47.463Z,1.10
2022-10-23T03:22:37.281Z,1.15
2022-10-23T03:25:27.777Z,1.23
2022-10-23T03:28:20.175Z,1.40
2022-10-23T03:31:09.519Z,1.20
2022-10-23T03:34:02.242Z,1.42
2022-10-23T03:36:53.674Z,1.40
2022-10-23T03:39:43.361Z,1.40
2022-10-23T03:42:32.925Z,3.65
2022-10-23T03:45:22.645Z,1.27
2022-10-23T03:48:12.081Z,1.88
2022-10-23T03:51:01.606Z,2.42
2022-10-23T03:53:51.195Z,1.40
2022-10-23T03:56:40.508Z,1.50
2022-10-23T03:59:30.737Z,1.42
2022-10-23T04:02:22.050Z,1.60
2022-10-23T04:05:14.446Z,1.40
2022-10-23T04:08:16.381Z,1.38
2022-10-23T04:11:11.999Z,1.40
2022-10-23T04:14:07.619Z,1.73
2022-10-23T04:16:59.790Z,1.92
2022-10-23T04:19:50.156Z,2.22
2022-10-23T04:22:40.226Z,1.40
2022-10-23T04:25:30.027Z,2.65
2022-10-23T04:28:19.669Z,1.77
2022-10-23T04:31:08.973Z,1.40
2022-10-23T04:34:02.685Z,2.50
2022-10-23T04:36:53.756Z,4.47
2022-10-23T04:39:43.122Z,2.45
2022-10-23T04:42:35.493Z,1.98
2022-10-23T04:45:25.196Z,1.60
2022-10-23T04:48:14.596Z,1.77
2022-10-23T04:51:30.077Z,1.65
2022-10-23T04:54:25.739Z,2.08
2022-10-23T04:57:33.456Z,2.35
2022-10-23T05:00:31.661Z,1.70
2022-10-23T05:03:24.401Z,1.80
2022-10-23T05:06:13.989Z,1.73
2022-10-23T05:09:15.502Z,1.90
2022-10-23T05:12:22.402Z,3.72
2022-10-23T05:15:12.229Z,1.77
2022-10-23T05:18:09.526Z,1.70
2022-10-23T05:21:15.562Z,3.13
2022-10-23T05:24:05.046Z,3.67
2022-10-23T05:26:54.838Z,2.35
2022-10-23T05:29:44.971Z,1.67
2022-10-23T05:32:36.564Z,1.80
2022-10-23T05:35:26.413Z,1.80
2022-10-23T05:38:16.527Z,2.65
2022-10-23T05:41:06.550Z,1.95
2022-10-23T05:43:56.070Z,2.30
2022-10-23T05:47:03.363Z,1.80
2022-10-23T05:50:01.469Z,1.60
2022-10-23T05:53:12.549Z,2.38
2022-10-23T05:56:14.419Z,2.00
2022-10-23T05:59:11.137Z,2.53
2022-10-23T06:02:11.225Z,1.92
2022-10-23T06:05:22.069Z,3.17
2022-10-23T06:08:46.794Z,2.50
2022-10-23T06:11:36.531Z,1.85
2022-10-23T06:14:31.402Z,2.00
2022-10-23T06:17:20.762Z,2.40
2022-10-23T06:20:10.930Z,1.85
2022-10-23T06:23:02.426Z,2.13
2022-10-23T06:26:14.738Z,1.85
2022-10-23T06:29:28.777Z,2.25
2022-10-23T06:32:18.141Z,1.90
2022-10-23T06:35:17.109Z,1.70
2022-10-23T06:38:06.791Z,1.35
2022-10-23T06:41:01.436Z,1.60
2022-10-23T06:43:56.715Z,2.03
2022-10-23T06:47:11.856Z,2.08
2022-10-23T06:50:40.285Z,1.67
2022-10-23T06:53:35.036Z,1.98
2022-10-23T06:56:31.923Z,1.75
2022-10-23T06:59:22.561Z,2.50
2022-10-23T07:02:13.923Z,1.80
2022-10-23T07:05:03.911Z,3.17
2022-10-23T07:07:53.468Z,1.70
2022-10-23T07:10:49.029Z,1.85
2022-10-23T07:13:41.761Z,1.63
2022-10-23T07:16:36.321Z,1.80
2022-10-23T07:19:25.989Z,1.80
2022-10-23T07:22:20.361Z,1.60
2022-10-23T07:25:29.521Z,1.85
2022-10-23T07:28:22.242Z,1.65
2022-10-23T07:31:12.229Z,2.05
2022-10-23T07:34:33.918Z,1.83
2022-10-23T07:37:39.442Z,1.70
2022-10-23T07:40:29.042Z,1.80
2022-10-23T07:43:25.581Z,1.50
2022-10-23T07:46:15.081Z,1.50
2022-10-23T07:49:05.095Z,2.08
2022-10-23T07:51:55.221Z,1.60
2022-10-23T07:54:45.196Z,2.65
2022-10-23T07:57:44.778Z,2.03
2022-10-23T08:01:03.555Z,1.50
2022-10-23T08:03:57.941Z,2.38
2022-10-23T08:06:47.469Z,1.80
2022-10-23T08:09:39.213Z,1.60
2022-10-23T08:12:29.829Z,1.92
2022-10-23T08:15:19.220Z,1.70
2022-10-23T08:18:16.813Z,1.73
2022-10-23T08:21:07.523Z,1.63
2022-10-23T08:23:58.157Z,1.65
2022-10-23T08:26:49.755Z,1.90
2022-10-23T08:29:41.129Z,1.65
2022-10-23T08:32:31.854Z,1.70
2022-10-23T08:35:22.646Z,1.52
2022-10-23T08:38:13.114Z,1.83
2022-10-23T08:41:08.094Z,1.73
2022-10-23T08:44:36.709Z,1.55
2022-10-23T08:47:44.321Z,1.58
2022-10-23T08:50:54.278Z,1.58
2022-10-23T08:54:01.675Z,1.65
2022-10-23T08:57:05.471Z,1.60
2022-10-23T09:00:00.653Z,1.30
2022-10-23T09:02:52.716Z,3.33
2022-10-23T09:05:58.777Z,2.10
2022-10-23T09:09:18.709Z,1.67
2022-10-23T09:12:19.755Z,1.70
2022-10-23T09:15:22.449Z,1.60
2022-10-23T09:18:18.333Z,1.77
2022-10-23T09:21:11.515Z,1.60
2022-10-23T09:24:00.837Z,1.58
2022-10-23T09:26:52.767Z,2.65
2022-10-23T09:29:53.989Z,1.50
2022-10-23T09:32:44.641Z,1.50
2022-10-23T09:35:34.041Z,1.67
2022-10-23T09:38:35.537Z,1.67
2022-10-23T09:41:39.590Z,1.63
2022-10-23T09:44:34.611Z,1.60
2022-10-23T09:47:26.414Z,1.65
2022-10-23T09:50:22.402Z,2.05
2022-10-23T09:53:23.191Z,1.67
2022-10-23T09:56:36.435Z,1.55
2022-10-23T09:59:31.293Z,2.13
2022-10-23T10:02:30.875Z,1.90
2022-10-23T10:05:39.841Z,1.80
2022-10-23T10:08:48.823Z,1.95
2022-10-23T10:11:42.082Z,1.98
2022-10-23T10:15:00.098Z,1.95
2022-10-23T10:18:15.760Z,2.60
2022-10-23T10:21:12.708Z,1.77
2022-10-23T10:24:09.923Z,2.08
2022-10-23T10:27:39.521Z,1.98
2022-10-23T10:30:56.316Z,1.88
2022-10-23T10:34:04.185Z,2.10
2022-10-23T10:37:04.875Z,1.90
2022-10-23T10:40:09.277Z,1.90
2022-10-23T10:43:40.449Z,1.90
2022-10-23T10:46:41.115Z,1.77
2022-10-23T10:49:47.973Z,2.05
2022-10-23T10:53:21.435Z,2.40
2022-10-23T10:56:16.157Z,2.33
2022-10-23T10:59:30.352Z,2.65
2022-10-23T11:02:28.869Z,2.08
2022-10-23T11:05:34.930Z,2.40
2022-10-23T11:08:29.577Z,2.40
2022-10-23T11:11:38.778Z,2.22
2022-10-23T11:14:34.025Z,2.30
2022-10-23T11:17:40.029Z,2.33
2022-10-23T11:20:29.590Z,2.47
2022-10-23T11:23:56.696Z,2.40
2022-10-23T11:27:04.246Z,2.53
2022-10-23T11:30:05.925Z,2.08
2022-10-23T11:33:39.262Z,2.40
2022-10-23T11:36:48.471Z,2.40
2022-10-23T11:39:41.049Z,2.20
2022-10-23T11:42:46.893Z,2.53
2022-10-23T11:45:38.690Z,2.40
2022-10-23T11:48:48.801Z,2.95
2022-10-23T11:51:42.636Z,2.30
2022-10-23T11:54:32.309Z,2.30
2022-10-23T11:57:21.727Z,2.22
2022-10-23T12:00:23.954Z,2.30
2022-10-23T12:03:25.470Z,2.03
2022-10-23T12:06:26.281Z,2.25
2022-10-23T12:09:40.555Z,2.22
2022-10-23T12:12:36.390Z,4.50
2022-10-23T12:15:27.594Z,2.30
2022-10-23T12:18:18.529Z,2.22
2022-10-23T12:21:19.761Z,1.92
2022-10-23T12:24:40.618Z,2.10
2022-10-23T12:27:41.706Z,2.10
2022-10-23T12:31:17.671Z,2.13
2022-10-23T12:34:18.529Z,2.40
2022-10-23T12:37:25.254Z,2.17
2022-10-23T12:40:14.582Z,2.22
2022-10-23T12:43:04.250Z,2.22
2022-10-23T12:45:54.401Z,2.47
2022-10-23T12:48:51.313Z,1.90
2022-10-23T12:51:40.530Z,2.10
2022-10-23T12:54:32.163Z,1.90
2022-10-23T12:57:29.910Z,2.08
2022-10-23T13:00:23.524Z,2.47
2022-10-23T13:03:13.317Z,2.15
2022-10-23T13:06:04.169Z,2.55
2022-10-23T13:08:54.281Z,2.13
2022-10-23T13:12:10.257Z,3.15
2022-10-23T13:15:16.446Z,2.20
2022-10-23T13:18:08.025Z,2.15
2022-10-23T13:24:21.590Z,2.08
2022-10-23T13:27:40.344Z,2.15
2022-10-23T13:30:43.909Z,2.33
2022-10-23T13:33:36.753Z,2.22
2022-10-23T13:36:28.480Z,2.15
2022-10-23T13:39:30.836Z,1.80
2022-10-23T13:42:20.550Z,2.08
2022-10-23T13:45:19.909Z,2.10
2022-10-23T13:48:16.323Z,2.75
2022-10-23T13:51:21.089Z,2.45
2022-10-23T13:54:18.550Z,2.03
2022-10-23T13:57:14.395Z,1.60
2022-10-23T14:00:03.830Z,3.13
2022-10-23T14:03:00.666Z,4.43
2022-10-23T14:05:50.149Z,2.90
2022-10-23T14:08:39.389Z,3.92
2022-10-23T14:11:29.042Z,1.95
2022-10-23T14:14:18.478Z,3.13
2022-10-23T14:17:07.888Z,2.25
2022-10-23T14:19:57.151Z,3.28
2022-10-23T14:22:46.551Z,3.15
2022-10-23T14:25:36.270Z,5.18
2022-10-23T14:28:25.596Z,7.75
2022-10-23T14:31:17.554Z,2.88
2022-10-23T14:34:06.849Z,5.65
2022-10-23T14:37:07.944Z,2.03
2022-10-23T14:39:58.798Z,2.92
2022-10-23T14:42:48.567Z,2.50
2022-10-23T14:45:38.629Z,3.30
2022-10-23T14:48:28.814Z,6.90
2022-10-23T14:51:22.292Z,5.68
2022-10-23T14:54:11.749Z,5.32
2022-10-23T14:57:01.018Z,8.10
2022-10-23T14:59:51.289Z,2.80
2022-10-23T15:02:41.018Z,7.20
2022-10-23T15:05:30.808Z,5.70
2022-10-23T15:08:22.551Z,3.80
2022-10-23T15:11:12.749Z,10.80
2022-10-23T15:14:02.735Z,2.53
2022-10-23T15:16:52.093Z,3.17
2022-10-23T15:19:41.853Z,5.53
2022-10-23T15:22:31.281Z,5.88
2022-10-23T15:25:21.161Z,3.80
2022-10-23T15:28:10.414Z,3.67
2022-10-23T15:31:00.310Z,5.28
2022-10-23T15:33:49.790Z,5.82
2022-10-23T15:36:40.076Z,3.60
2022-10-23T15:39:34.715Z,7.38
2022-10-23T15:42:24.263Z,2.33
2022-10-23T15:45:15.064Z,6.63
2022-10-23T15:48:04.898Z,6.25
2022-10-23T15:50:54.423Z,5.80
2022-10-23T15:53:43.815Z,6.30
2022-10-23T15:56:33.414Z,3.72
2022-10-23T15:59:25.751Z,1.88
2022-10-23T16:02:16.451Z,3.85
2022-10-23T16:05:06.322Z,5.57
2022-10-23T16:07:55.542Z,3.38
2022-10-23T16:10:45.088Z,3.50
2022-10-23T16:13:35.910Z,4.00
2022-10-23T16:16:25.862Z,3.58
2022-10-23T16:19:15.261Z,4.07
2022-10-23T16:22:04.715Z,5.00
2022-10-23T16:24:53.928Z,2.83
2022-10-23T16:27:43.534Z,5.15
2022-10-23T16:30:33.062Z,3.17
2022-10-23T16:33:22.421Z,1.88
2022-10-23T16:36:12.230Z,2.08
2022-10-23T16:39:21.835Z,4.60
2022-10-23T16:42:33.403Z,2.40
2022-10-23T16:45:34.468Z,2.50
2022-10-23T16:48:26.309Z,4.30
2022-10-23T16:51:18.366Z,11.52
2022-10-23T16:54:07.791Z,3.87
2022-10-23T16:56:57.122Z,6.10
2022-10-23T16:59:46.357Z,7.38
2022-10-23T17:02:35.906Z,6.68
2022-10-23T17:05:25.350Z,3.05
2022-10-23T17:08:14.762Z,4.00
2022-10-23T17:11:28.598Z,6.53
2022-10-23T17:14:22.077Z,7.85
2022-10-23T17:17:12.054Z,2.75
2022-10-23T17:20:01.811Z,3.80
2022-10-23T17:22:51.599Z,8.68
2022-10-23T17:25:42.253Z,3.10
2022-10-23T17:28:32.813Z,6.28
2022-10-23T17:31:38.190Z,7.05
2022-10-23T17:34:27.528Z,2.15
2022-10-23T17:37:18.246Z,4.15
2022-10-23T17:40:08.285Z,9.52
2022-10-23T17:42:57.934Z,6.40
2022-10-23T17:45:47.250Z,4.43
2022-10-23T17:48:37.172Z,4.95
2022-10-23T17:51:29.429Z,3.55
2022-10-23T17:54:19.196Z,7.00
2022-10-23T17:57:08.493Z,2.45
2022-10-23T17:59:58.322Z,5.15
2022-10-23T18:02:47.768Z,4.57
2022-10-23T18:08:28.319Z,2.13
2022-10-23T18:11:21.122Z,3.15
2022-10-23T18:14:12.559Z,7.10
2022-10-23T18:17:02.809Z,4.07
2022-10-23T18:19:53.152Z,1.20
2022-10-23T18:22:44.054Z,2.50
2022-10-23T18:25:33.976Z,5.60
2022-10-23T18:28:23.963Z,2.75
2022-10-23T18:31:15.097Z,3.70
2022-10-23T18:34:11.910Z,1.90
2022-10-23T18:37:02.646Z,3.65
2022-10-23T18:39:54.077Z,3.63
2022-10-23T18:42:44.381Z,5.78
2022-10-23T18:45:35.279Z,4.28
2022-10-23T18:48:28.808Z,4.78
2022-10-23T18:51:25.917Z,4.90
2022-10-23T18:54:17.182Z,2.30
2022-10-23T18:57:07.281Z,4.95
2022-10-23T19:00:01.020Z,4.95
2022-10-23T19:02:52.446Z,6.18
2022-10-23T19:05:49.950Z,3.17
2022-10-23T19:08:42.855Z,5.97
2022-10-23T19:14:23.637Z,110.85
2022-10-23T19:17:23.297Z,43.60
2022-10-23T19:20:17.227Z,32.20
2022-10-23T19:23:10.689Z,20.92
2022-10-23T19:26:04.212Z,20.10
2022-10-23T19:28:54.944Z,24.13
2022-10-23T19:31:50.184Z,14.13
2022-10-23T19:34:40.699Z,13.48
2022-10-23T19:37:31.189Z,10.77
2022-10-23T19:40:21.277Z,10.75
2022-10-23T19:43:11.721Z,116.43
2022-10-23T19:46:09.334Z,37.25
2022-10-23T19:49:01.597Z,31.92
2022-10-23T19:51:52.603Z,28.00
2022-10-23T19:54:44.612Z,230.27
2022-10-23T19:57:35.681Z,154.05
2022-10-23T20:00:25.278Z,121.28
2022-10-23T20:03:16.058Z,84.85
2022-10-23T20:06:08.477Z,157.77
2022-10-23T20:08:59.791Z,348.35
2022-10-23T20:11:54.597Z,155.23
2022-10-23T20:14:45.436Z,161.95
2022-10-23T20:17:35.444Z,145.35
2022-10-23T20:20:25.470Z,90.05
2022-10-23T20:23:15.770Z,57.67
2022-10-23T20:26:09.653Z,100.93
2022-10-23T20:28:59.607Z,51.53
2022-10-23T20:31:50.277Z,57.03
2022-10-23T20:34:46.297Z,58.33
2022-10-23T20:37:38.851Z,45.85
2022-10-23T20:40:29.651Z,44.38
2022-10-23T20:43:19.450Z,29.77
2022-10-23T20:46:11.000Z,26.83
2022-10-23T20:49:01.120Z,34.65
2022-10-23T20:51:58.072Z,22.63
2022-10-23T20:54:47.873Z,32.58
2022-10-23T20:57:38.264Z,28.80
2022-10-23T21:00:29.913Z,31.77
2022-10-23T21:03:20.161Z,24.40
2022-10-23T21:06:15.773Z,24.33
2022-10-23T21:09:07.960Z,19.73
2022-10-23T21:11:58.777Z,25.80
2022-10-23T21:14:48.559Z,25.60
2022-10-23T21:17:42.241Z,15.15
2022-10-23T21:20:32.274Z,16.35
2022-10-23T21:23:23.445Z,22.48
2022-10-23T21:26:17.361Z,11.80
2022-10-23T21:29:18.131Z,10.55
2022-10-23T21:32:09.813Z,11.27
2022-10-23T21:35:00.241Z,9.30
2022-10-23T21:37:50.020Z,13.48
2022-10-23T21:40:40.852Z,15.57
2022-10-23T21:43:33.457Z,9.77
2022-10-23T21:46:25.280Z,12.05
2022-10-23T21:49:16.091Z,13.55
2022-10-23T21:52:07.002Z,12.13
2022-10-23T21:54:57.929Z,15.50
2022-10-23T21:57:48.294Z,9.00
2022-10-23T22:00:38.613Z,12.48
2022-10-23T22:03:28.550Z,6.32
2022-10-23T22:06:26.273Z,10.48
2022-10-23T22:09:20.710Z,7.85
2022-10-23T22:12:14.457Z,6.18
2022-10-23T22:15:05.938Z,12.25
2022-10-23T22:17:57.592Z,6.93
2022-10-23T22:20:48.879Z,8.45
2022-10-23T22:23:40.095Z,12.13
2022-10-23T22:26:36.732Z,7.97
2022-10-23T22:29:29.521Z,10.30
2022-10-23T22:35:09.893Z,7.25
2022-10-23T22:37:59.488Z,5.47
2022-10-23T22:44:01.214Z,7.10
2022-10-23T22:46:51.260Z,3.60
2022-10-23T22:49:41.090Z,4.47
2022-10-23T22:52:31.363Z,6.90
2022-10-23T22:55:21.948Z,5.97
2022-10-23T22:58:11.759Z,5.13
2022-10-23T23:01:25.786Z,8.48
2022-10-23T23:04:37.224Z,6.07
2022-10-23T23:07:28.069Z,7.88
2022-10-23T23:10:18.845Z,6.32
2022-10-23T23:13:09.487Z,13.52
2022-10-23T23:16:00.214Z,14.35
2022-10-23T23:18:53.686Z,9.93
2022-10-23T23:21:43.515Z,3.55
2022-10-23T23:24:34.397Z,11.20
2022-10-23T23:27:24.467Z,5.38
2022-10-23T23:30:14.949Z,5.03
2022-10-23T23:33:05.895Z,12.20
2022-10-23T23:35:56.524Z,8.32
2022-10-23T23:38:46.702Z,10.88
2022-10-23T23:41:36.723Z,10.43
2022-10-23T23:44:29.816Z,7.40
2022-10-23T23:47:21.226Z,5.68
2022-10-23T23:50:13.378Z,5.80
2022-10-23T23:53:04.059Z,2.67
2022-10-23T23:55:55.218Z,3.88
2022-10-23T23:58:47.790Z,2.70
